createdAt,value
2019-01-15T00:00:27.304Z,7.13
2019-01-15T00:02:31.863Z,7.83
2019-01-15T00:04:36.227Z,5.00
2019-01-15T00:06:40.725Z,6.30
2019-01-15T00:08:45.225Z,5.50
2019-01-15T00:10:50.552Z,4.50
2019-01-15T00:12:55.085Z,8.70
2019-01-15T00:14:59.586Z,10.73
2019-01-15T00:17:03.955Z,5.23
2019-01-15T00:19:08.421Z,7.47
2019-01-15T00:21:13.009Z,8.63
2019-01-15T00:23:17.348Z,6.60
2019-01-15T00:25:21.785Z,15.53
2019-01-15T00:27:27.983Z,8.03
2019-01-15T00:29:32.340Z,8.73
2019-01-15T00:31:36.817Z,7.33
2019-01-15T00:33:41.247Z,3.27
2019-01-15T00:35:45.682Z,8.43
2019-01-15T00:37:51.748Z,6.07
2019-01-15T00:39:56.167Z,4.03
2019-01-15T00:42:00.736Z,7.50
2019-01-15T00:44:05.225Z,5.10
2019-01-15T00:46:09.808Z,12.17
2019-01-15T00:48:14.666Z,13.27
2019-01-15T00:50:20.779Z,5.33
2019-01-15T00:52:25.239Z,7.00
2019-01-15T00:54:29.647Z,9.40
2019-01-15T00:56:34.079Z,6.20
2019-01-15T00:58:38.873Z,7.43
2019-01-15T01:00:43.672Z,7.07
2019-01-15T01:02:48.524Z,5.17
2019-01-15T01:04:52.980Z,11.07
2019-01-15T01:06:59.331Z,8.43
2019-01-15T01:09:06.370Z,9.70
2019-01-15T01:11:14.135Z,5.60
2019-01-15T01:13:19.510Z,8.50
2019-01-15T01:15:24.303Z,9.37
2019-01-15T01:17:29.056Z,9.50
2019-01-15T01:19:33.483Z,6.73
2019-01-15T01:21:37.902Z,8.10
2019-01-15T01:23:42.327Z,10.23
2019-01-15T01:25:46.937Z,7.10
2019-01-15T01:27:51.642Z,10.83
2019-01-15T01:29:56.138Z,8.17
2019-01-15T01:32:00.486Z,11.50
2019-01-15T01:34:05.700Z,10.83
2019-01-15T01:36:10.171Z,9.07
2019-01-15T01:38:14.956Z,11.40
2019-01-15T01:40:21.161Z,5.93
2019-01-15T01:42:29.566Z,6.33
2019-01-15T01:44:32.002Z,14.87
2019-01-15T01:46:41.668Z,6.43
2019-01-15T01:48:46.427Z,8.50
2019-01-15T01:50:50.764Z,4.70
2019-01-15T01:52:55.249Z,6.33
2019-01-15T01:54:59.741Z,7.50
2019-01-15T01:57:04.422Z,10.93
2019-01-15T01:59:08.795Z,10.60
2019-01-15T02:01:15.171Z,11.03
2019-01-15T02:03:19.562Z,9.93
2019-01-15T02:05:23.944Z,10.57
2019-01-15T02:07:28.710Z,12.70
2019-01-15T02:09:35.343Z,11.10
2019-01-15T02:11:39.898Z,24.17
2019-01-15T02:13:44.840Z,19.30
2019-01-15T02:15:50.257Z,14.87
2019-01-15T02:17:57.581Z,10.43
2019-01-15T02:20:05.724Z,10.10
2019-01-15T02:22:10.514Z,15.13
2019-01-15T02:24:15.474Z,12.77
2019-01-15T02:26:21.202Z,12.03
2019-01-15T02:28:25.692Z,17.83
2019-01-15T02:30:30.057Z,11.53
2019-01-15T02:32:34.955Z,14.33
2019-01-15T02:34:41.401Z,10.37
2019-01-15T02:36:45.862Z,13.37
2019-01-15T02:38:51.088Z,18.63
2019-01-15T02:40:56.030Z,13.43
2019-01-15T02:43:00.728Z,15.03
2019-01-15T02:45:06.630Z,8.93
2019-01-15T02:47:11.331Z,15.20
2019-01-15T02:49:15.733Z,5.53
2019-01-15T02:51:22.854Z,22.33
2019-01-15T02:53:27.307Z,14.13
2019-01-15T02:55:31.672Z,11.73
2019-01-15T02:57:36.116Z,12.67
2019-01-15T02:59:40.557Z,12.43
2019-01-15T03:01:45.202Z,8.83
2019-01-15T03:03:49.781Z,9.67
2019-01-15T03:05:55.331Z,11.20
2019-01-15T03:07:59.825Z,15.03
2019-01-15T03:10:08.264Z,25.00
2019-01-15T03:12:12.608Z,22.50
2019-01-15T03:14:17.462Z,19.80
2019-01-15T03:16:23.587Z,19.10
2019-01-15T03:18:27.999Z,21.03
2019-01-15T03:20:32.474Z,26.27
2019-01-15T03:22:36.907Z,23.23
2019-01-15T03:24:41.302Z,22.17
2019-01-15T03:26:45.661Z,23.73
2019-01-15T03:28:50.040Z,17.97
2019-01-15T03:30:54.937Z,25.97
2019-01-15T03:32:59.367Z,14.10
2019-01-15T03:35:04.768Z,20.37
2019-01-15T03:37:09.935Z,15.20
2019-01-15T03:39:14.884Z,15.10
2019-01-15T03:41:19.482Z,26.73
2019-01-15T03:43:24.769Z,18.43
2019-01-15T03:45:29.811Z,19.53
2019-01-15T03:47:35.116Z,15.30
2019-01-15T03:49:39.620Z,19.60
2019-01-15T03:51:44.125Z,17.43
2019-01-15T03:53:48.694Z,17.50
2019-01-15T03:55:57.367Z,15.70
2019-01-15T03:58:01.839Z,16.27
2019-01-15T04:00:09.862Z,17.67
2019-01-15T04:02:17.791Z,18.40
2019-01-15T04:04:22.298Z,22.13
2019-01-15T04:06:26.777Z,14.10
2019-01-15T04:08:31.565Z,18.37
2019-01-15T04:10:35.943Z,18.63
2019-01-15T04:12:43.094Z,24.97
2019-01-15T04:14:47.555Z,21.00
2019-01-15T04:16:52.975Z,21.33
2019-01-15T04:18:59.321Z,23.10
2019-01-15T04:21:04.247Z,24.63
2019-01-15T04:23:08.754Z,16.87
2019-01-15T04:25:14.120Z,15.07
2019-01-15T04:27:18.654Z,20.43
2019-01-15T04:29:25.351Z,18.10
2019-01-15T04:31:29.873Z,14.77
2019-01-15T04:33:35.808Z,15.07
2019-01-15T04:35:40.321Z,24.47
2019-01-15T04:37:49.014Z,17.23
2019-01-15T04:39:53.873Z,24.90
2019-01-15T04:41:58.257Z,18.00
2019-01-15T04:44:07.174Z,27.20
2019-01-15T04:46:11.607Z,27.97
2019-01-15T04:48:16.073Z,23.80
2019-01-15T04:50:20.505Z,18.93
2019-01-15T04:52:25.483Z,26.43
2019-01-15T04:54:33.417Z,20.30
2019-01-15T04:56:38.415Z,22.53
2019-01-15T04:58:43.191Z,31.60
2019-01-15T05:00:47.563Z,20.67
2019-01-15T05:02:52.271Z,17.03
2019-01-15T05:04:56.663Z,20.20
2019-01-15T05:07:01.350Z,14.90
2019-01-15T05:09:08.067Z,13.10
2019-01-15T05:11:14.906Z,17.67
2019-01-15T05:13:19.248Z,15.13
2019-01-15T05:15:24.118Z,13.27
2019-01-15T05:17:28.530Z,17.70
2019-01-15T05:19:33.119Z,18.70
2019-01-15T05:21:37.635Z,17.23
2019-01-15T05:23:42.098Z,17.33
2019-01-15T05:25:46.486Z,17.37
2019-01-15T05:27:50.895Z,14.93
2019-01-15T05:29:55.340Z,20.40
2019-01-15T05:31:59.674Z,19.13
2019-01-15T05:34:04.399Z,23.87
2019-01-15T05:36:09.079Z,13.27
2019-01-15T05:38:13.452Z,22.80
2019-01-15T05:40:18.044Z,22.57
2019-01-15T05:42:22.483Z,18.63
2019-01-15T05:44:26.922Z,23.73
2019-01-15T05:46:32.327Z,17.50
2019-01-15T05:48:37.419Z,23.10
2019-01-15T05:51:00.575Z,26.10
2019-01-15T05:53:05.168Z,21.77
2019-01-15T05:55:09.953Z,24.27
2019-01-15T05:57:14.321Z,25.83
2019-01-15T05:59:20.716Z,26.20
2019-01-15T06:01:25.185Z,21.80
2019-01-15T06:03:29.608Z,21.27
2019-01-15T06:05:34.075Z,21.83
2019-01-15T06:07:38.530Z,20.50
2019-01-15T06:09:42.814Z,19.90
2019-01-15T06:11:47.176Z,21.63
2019-01-15T06:13:51.662Z,18.40
2019-01-15T06:15:59.216Z,25.30
2019-01-15T06:18:03.771Z,24.43
2019-01-15T06:20:12.153Z,17.00
2019-01-15T06:22:16.881Z,23.63
2019-01-15T06:24:24.465Z,21.70
2019-01-15T06:26:28.987Z,18.77
2019-01-15T06:28:33.622Z,17.67
2019-01-15T06:30:38.383Z,10.33
2019-01-15T06:32:42.841Z,17.57
2019-01-15T06:34:49.081Z,14.63
2019-01-15T06:36:53.520Z,17.30
2019-01-15T06:38:57.991Z,20.70
2019-01-15T06:41:03.145Z,13.00
2019-01-15T06:43:07.979Z,12.27
2019-01-15T06:45:15.409Z,22.00
2019-01-15T06:47:21.232Z,23.70
2019-01-15T06:49:28.172Z,24.33
2019-01-15T06:51:32.697Z,17.20
2019-01-15T06:53:37.545Z,26.03
2019-01-15T06:55:44.700Z,17.80
2019-01-15T06:57:49.633Z,17.70
2019-01-15T06:59:55.072Z,19.67
2019-01-15T07:01:59.636Z,21.87
2019-01-15T07:04:04.633Z,16.73
2019-01-15T07:06:09.100Z,17.57
2019-01-15T07:08:13.661Z,19.47
2019-01-15T07:10:21.032Z,25.07
2019-01-15T07:12:25.506Z,18.57
2019-01-15T07:14:30.085Z,21.23
2019-01-15T07:16:35.449Z,14.90
2019-01-15T07:18:39.873Z,23.90
2019-01-15T07:20:45.334Z,23.87
2019-01-15T07:22:51.040Z,18.80
2019-01-15T07:24:55.434Z,23.50
2019-01-15T07:26:59.857Z,18.37
2019-01-15T07:29:04.343Z,20.73
2019-01-15T07:31:08.889Z,29.93
2019-01-15T07:33:13.435Z,17.40
2019-01-15T07:35:17.979Z,21.93
2019-01-15T07:37:22.700Z,26.47
2019-01-15T07:39:27.303Z,17.07
2019-01-15T07:41:31.793Z,20.40
2019-01-15T07:43:36.426Z,21.93
2019-01-15T07:45:40.942Z,23.20
2019-01-15T07:47:48.423Z,17.93
2019-01-15T07:49:52.879Z,19.83
2019-01-15T07:52:00.387Z,27.03
2019-01-15T07:54:08.469Z,20.23
2019-01-15T07:56:14.052Z,25.63
2019-01-15T07:58:18.820Z,21.30
2019-01-15T08:00:23.561Z,19.97
2019-01-15T08:02:30.370Z,28.17
2019-01-15T08:04:37.550Z,26.63
2019-01-15T08:06:42.343Z,15.10
2019-01-15T08:08:46.683Z,30.13
2019-01-15T08:10:56.907Z,24.73
2019-01-15T08:12:57.669Z,30.53
2019-01-15T08:15:02.177Z,42.23
2019-01-15T08:17:06.676Z,22.07
2019-01-15T08:19:11.155Z,56.87
2019-01-15T08:21:16.793Z,33.53
2019-01-15T08:23:22.596Z,27.60
2019-01-15T08:25:27.115Z,18.50
2019-01-15T08:27:31.529Z,27.27
2019-01-15T08:29:36.126Z,28.43
2019-01-15T08:31:41.795Z,24.40
2019-01-15T08:33:49.925Z,30.13
2019-01-15T08:35:56.991Z,16.53
2019-01-15T08:38:01.491Z,27.73
2019-01-15T08:40:07.455Z,29.30
2019-01-15T08:42:11.832Z,28.57
2019-01-15T08:44:19.339Z,41.37
2019-01-15T08:46:24.369Z,29.27
2019-01-15T08:48:30.588Z,26.93
2019-01-15T08:50:35.645Z,24.77
2019-01-15T08:52:40.378Z,30.80
2019-01-15T08:54:47.571Z,30.57
2019-01-15T08:56:52.051Z,31.60
2019-01-15T08:58:56.431Z,45.30
2019-01-15T09:01:02.741Z,33.33
2019-01-15T09:03:07.173Z,28.57
2019-01-15T09:05:11.604Z,38.20
2019-01-15T09:07:15.949Z,34.57
2019-01-15T09:09:20.370Z,27.37
2019-01-15T09:11:24.772Z,44.30
2019-01-15T09:13:29.182Z,29.87
2019-01-15T09:15:34.740Z,30.67
2019-01-15T09:17:43.105Z,38.00
2019-01-15T09:19:47.848Z,42.77
2019-01-15T09:21:52.845Z,29.83
2019-01-15T09:23:57.516Z,31.13
2019-01-15T09:26:02.859Z,37.23
2019-01-15T09:28:07.280Z,47.60
2019-01-15T09:30:14.577Z,46.10
2019-01-15T09:32:21.687Z,30.13
2019-01-15T09:34:26.092Z,43.67
2019-01-15T09:36:30.484Z,27.00
2019-01-15T09:38:34.966Z,23.37
2019-01-15T09:40:39.526Z,35.87
2019-01-15T09:42:44.307Z,31.77
2019-01-15T09:44:49.719Z,31.17
2019-01-15T09:46:54.164Z,39.63
2019-01-15T09:48:58.589Z,31.67
2019-01-15T09:51:03.055Z,39.30
2019-01-15T09:53:12.268Z,29.47
2019-01-15T09:55:16.715Z,32.90
2019-01-15T09:57:21.195Z,33.93
2019-01-15T09:59:25.774Z,40.90
2019-01-15T10:01:30.874Z,33.83
2019-01-15T10:03:36.030Z,32.43
2019-01-15T10:05:41.005Z,37.13
2019-01-15T10:07:46.202Z,40.33
2019-01-15T10:09:55.963Z,28.53
2019-01-15T10:12:00.492Z,33.43
2019-01-15T10:14:05.309Z,34.43
2019-01-15T10:16:11.255Z,27.53
2019-01-15T10:18:16.134Z,41.27
2019-01-15T10:20:20.783Z,38.80
2019-01-15T10:22:25.663Z,23.87
2019-01-15T10:24:30.907Z,40.60
2019-01-15T10:26:38.587Z,32.77
2019-01-15T10:28:45.735Z,36.17
2019-01-15T10:31:17.098Z,30.27
2019-01-15T10:33:31.961Z,30.67
2019-01-15T10:36:03.669Z,23.57
2019-01-15T10:38:08.550Z,29.73
2019-01-15T10:40:14.824Z,32.33
2019-01-15T10:42:19.258Z,27.17
2019-01-15T10:44:23.690Z,40.50
2019-01-15T10:46:31.970Z,25.90
2019-01-15T10:48:34.196Z,23.77
2019-01-15T10:50:38.561Z,27.37
2019-01-15T10:52:45.519Z,24.47
2019-01-15T10:54:50.248Z,22.73
2019-01-15T10:56:54.578Z,20.93
2019-01-15T10:59:00.356Z,38.73
2019-01-15T11:01:08.542Z,16.13
2019-01-15T11:03:12.941Z,18.07
2019-01-15T11:05:17.505Z,31.83
2019-01-15T11:07:21.953Z,10.30
2019-01-15T11:09:27.706Z,19.03
2019-01-15T11:11:32.228Z,16.37
2019-01-15T11:13:39.599Z,12.63
2019-01-15T11:15:46.526Z,23.03
2019-01-15T11:17:50.881Z,12.47
2019-01-15T11:19:55.420Z,20.43
2019-01-15T11:22:00.157Z,16.40
2019-01-15T11:24:04.871Z,17.40
2019-01-15T11:26:09.836Z,8.90
2019-01-15T11:28:15.336Z,17.27
2019-01-15T11:30:19.842Z,18.70
2019-01-15T11:32:24.333Z,14.60
2019-01-15T11:34:28.762Z,9.00
2019-01-15T11:36:33.190Z,10.80
2019-01-15T11:38:37.629Z,7.47
2019-01-15T11:40:42.065Z,13.83
2019-01-15T11:42:47.858Z,13.90
2019-01-15T11:44:55.109Z,16.33
2019-01-15T11:46:59.617Z,11.20
2019-01-15T11:49:05.134Z,7.60
2019-01-15T11:51:09.986Z,8.17
2019-01-15T11:53:14.937Z,12.13
2019-01-15T11:55:21.314Z,7.67
2019-01-15T11:57:26.370Z,7.60
2019-01-15T11:59:31.866Z,9.80
2019-01-15T12:01:59.498Z,4.60
2019-01-15T12:04:22.556Z,6.60
2019-01-15T12:06:45.807Z,12.93
2019-01-15T12:09:07.628Z,8.43
2019-01-15T12:11:43.318Z,11.63
2019-01-15T12:14:09.493Z,7.73
2019-01-15T12:16:37.767Z,9.60
2019-01-15T12:19:00.181Z,8.23
2019-01-15T12:21:26.400Z,8.77
2019-01-15T12:23:43.945Z,4.67
2019-01-15T12:26:06.035Z,4.30
2019-01-15T12:28:35.613Z,3.57
2019-01-15T12:30:58.519Z,8.00
2019-01-15T12:33:21.581Z,4.20
2019-01-15T12:35:50.948Z,10.27
2019-01-15T12:38:14.260Z,12.20
2019-01-15T12:40:37.611Z,4.10
2019-01-15T12:43:01.570Z,7.93
2019-01-15T12:45:24.981Z,2.97
2019-01-15T12:47:51.165Z,9.30
2019-01-15T12:50:21.004Z,1.97
2019-01-15T12:52:50.401Z,5.37
2019-01-15T12:55:12.426Z,5.73
2019-01-15T12:57:39.641Z,5.50
2019-01-15T13:00:06.656Z,8.30
2019-01-15T13:02:31.934Z,8.43
2019-01-15T13:05:07.415Z,4.23
2019-01-15T13:07:33.635Z,3.97
2019-01-15T13:09:55.511Z,3.43
2019-01-15T13:12:21.832Z,10.03
2019-01-15T13:14:43.640Z,5.90
2019-01-15T13:17:18.673Z,5.87
2019-01-15T13:19:43.909Z,14.07
2019-01-15T13:22:24.254Z,10.10
2019-01-15T13:25:02.529Z,3.47
2019-01-15T13:27:17.370Z,8.57
2019-01-15T13:29:38.812Z,6.93
2019-01-15T13:32:01.471Z,9.23
2019-01-15T13:34:23.640Z,7.53
2019-01-15T13:36:59.319Z,10.47
2019-01-15T13:39:32.964Z,6.40
2019-01-15T13:41:54.600Z,5.83
2019-01-15T13:44:33.386Z,6.03
2019-01-15T13:46:57.631Z,12.00
2019-01-15T13:49:21.392Z,3.00
2019-01-15T13:51:49.880Z,3.23
2019-01-15T13:54:20.783Z,4.37
2019-01-15T13:56:46.115Z,8.70
2019-01-15T13:59:00.481Z,12.40
2019-01-15T14:01:29.937Z,10.10
2019-01-15T14:04:09.978Z,8.37
2019-01-15T14:06:31.809Z,11.93
2019-01-15T14:09:00.937Z,12.27
2019-01-15T14:11:25.377Z,8.33
2019-01-15T14:13:49.139Z,8.43
2019-01-15T14:16:15.678Z,7.80
2019-01-15T14:18:54.404Z,5.10
2019-01-15T14:21:24.042Z,7.37
2019-01-15T14:23:51.258Z,12.70
2019-01-15T14:26:33.299Z,4.97
2019-01-15T14:28:51.905Z,3.60
2019-01-15T14:31:30.377Z,7.50
2019-01-15T14:34:07.216Z,18.20
2019-01-15T14:36:29.130Z,7.50
2019-01-15T14:38:51.217Z,10.87
2019-01-15T14:41:15.785Z,13.30
2019-01-15T14:43:38.842Z,15.37
2019-01-15T14:46:14.175Z,10.93
2019-01-15T14:48:30.934Z,8.37
2019-01-15T14:50:56.000Z,13.40
2019-01-15T14:53:22.793Z,13.37
2019-01-15T14:55:56.825Z,17.67
2019-01-15T14:58:23.989Z,14.77
2019-01-15T15:00:57.024Z,11.30
2019-01-15T15:03:30.972Z,9.40
2019-01-15T15:06:01.984Z,17.10
2019-01-15T15:08:26.381Z,19.50
2019-01-15T15:10:53.194Z,14.30
2019-01-15T15:13:28.729Z,15.33
2019-01-15T15:15:50.862Z,7.73
2019-01-15T15:18:23.538Z,11.90
2019-01-15T15:20:50.957Z,13.03
2019-01-15T15:23:30.716Z,17.40
2019-01-15T15:25:42.158Z,14.47
2019-01-15T15:28:04.537Z,16.67
2019-01-15T15:30:29.300Z,11.23
2019-01-15T15:32:52.759Z,10.47
2019-01-15T15:35:17.063Z,13.53
2019-01-15T15:37:38.869Z,16.93
2019-01-15T15:40:08.491Z,12.60
2019-01-15T15:42:35.813Z,9.20
2019-01-15T15:45:15.567Z,9.90
2019-01-15T15:47:48.063Z,11.47
2019-01-15T15:50:05.015Z,12.30
2019-01-15T15:52:40.949Z,20.97
2019-01-15T15:54:58.583Z,11.20
2019-01-15T15:57:30.430Z,15.90
2019-01-15T15:59:59.963Z,8.67
2019-01-15T16:02:30.299Z,5.50
2019-01-15T16:04:56.953Z,11.53
2019-01-15T16:07:25.494Z,17.73
2019-01-15T16:09:50.512Z,16.97
2019-01-15T16:12:20.058Z,10.47
2019-01-15T16:14:31.116Z,11.70
2019-01-15T16:16:57.156Z,18.27
2019-01-15T16:19:23.886Z,21.83
2019-01-15T16:21:45.811Z,8.10
2019-01-15T16:24:15.404Z,10.67
2019-01-15T16:26:39.401Z,15.17
2019-01-15T16:29:15.072Z,11.70
2019-01-15T16:31:58.428Z,18.50
2019-01-15T16:34:23.411Z,11.97
2019-01-15T16:36:44.740Z,15.27
2019-01-15T16:39:13.160Z,13.07
2019-01-15T16:41:45.854Z,25.70
2019-01-15T16:44:18.628Z,31.77
2019-01-15T16:46:37.526Z,15.67
2019-01-15T16:49:01.582Z,11.13
2019-01-15T16:51:27.778Z,11.77
2019-01-15T16:53:43.646Z,16.90
2019-01-15T16:56:09.381Z,13.50
2019-01-15T16:58:31.879Z,10.03
2019-01-15T17:00:49.972Z,13.53
2019-01-15T17:03:25.840Z,11.57
2019-01-15T17:05:50.831Z,19.60
2019-01-15T17:08:13.090Z,15.97
2019-01-15T17:10:42.770Z,14.90
2019-01-15T17:13:06.604Z,13.57
2019-01-15T17:15:30.326Z,8.27
2019-01-15T17:17:45.420Z,14.50
2019-01-15T17:20:12.352Z,7.83
2019-01-15T17:22:51.001Z,9.40
2019-01-15T17:25:19.448Z,14.40
2019-01-15T17:27:55.346Z,30.87
2019-01-15T17:30:18.689Z,13.50
2019-01-15T17:33:00.442Z,20.57
2019-01-15T17:35:27.940Z,8.57
2019-01-15T17:37:55.582Z,7.33
2019-01-15T17:40:22.319Z,14.80
2019-01-15T17:42:36.766Z,13.90
2019-01-15T17:44:59.267Z,8.87
2019-01-15T17:47:21.225Z,6.77
2019-01-15T17:49:43.323Z,11.00
2019-01-15T17:52:06.203Z,8.30
2019-01-15T17:54:28.695Z,8.60
2019-01-15T17:56:44.284Z,9.20
2019-01-15T17:59:08.400Z,6.83
2019-01-15T18:01:35.362Z,7.93
2019-01-15T18:03:57.647Z,7.50
2019-01-15T18:06:20.423Z,8.10
2019-01-15T18:08:44.800Z,14.07
2019-01-15T18:11:06.583Z,7.43
2019-01-15T18:13:35.713Z,10.10
2019-01-15T18:15:52.566Z,12.53
2019-01-15T18:18:22.401Z,7.17
2019-01-15T18:21:01.190Z,7.00
2019-01-15T18:23:22.506Z,6.63
2019-01-15T18:25:56.577Z,9.80
2019-01-15T18:28:26.513Z,7.33
2019-01-15T18:31:01.838Z,6.67
2019-01-15T18:33:23.970Z,8.37
2019-01-15T18:36:02.359Z,12.13
2019-01-15T18:38:42.201Z,6.73
2019-01-15T18:41:00.755Z,6.63
2019-01-15T18:43:30.185Z,10.90
2019-01-15T18:45:52.235Z,14.40
2019-01-15T18:48:20.535Z,10.93
2019-01-15T18:50:43.253Z,9.80
2019-01-15T18:53:18.844Z,11.70
2019-01-15T18:55:42.555Z,18.43
2019-01-15T18:58:06.409Z,11.23
2019-01-15T19:00:34.176Z,8.57
2019-01-15T19:03:10.031Z,10.30
2019-01-15T19:05:37.085Z,7.20
2019-01-15T19:08:08.231Z,12.93
2019-01-15T19:10:49.567Z,12.00
2019-01-15T19:13:06.683Z,15.17
2019-01-15T19:15:37.175Z,8.83
2019-01-15T19:18:07.511Z,7.67
2019-01-15T19:20:23.398Z,7.90
2019-01-15T19:22:43.685Z,12.43
2019-01-15T19:25:12.922Z,9.87
2019-01-15T19:27:37.316Z,10.33
2019-01-15T19:30:16.313Z,14.70
2019-01-15T19:32:55.813Z,13.20
2019-01-15T19:35:20.039Z,11.23
2019-01-15T19:37:42.376Z,10.60
2019-01-15T19:40:05.176Z,12.77
2019-01-15T19:42:27.470Z,9.13
2019-01-15T19:44:56.640Z,12.43
2019-01-15T19:47:26.766Z,9.40
2019-01-15T19:49:49.298Z,7.03
2019-01-15T19:52:13.800Z,9.57
2019-01-15T19:54:42.822Z,8.77
2019-01-15T19:57:23.797Z,9.90
2019-01-15T19:59:50.139Z,15.00
2019-01-15T20:02:14.591Z,17.37
2019-01-15T20:04:53.265Z,9.10
2019-01-15T20:07:28.209Z,6.93
2019-01-15T20:09:49.035Z,8.20
2019-01-15T20:12:07.657Z,7.93
2019-01-15T20:14:48.484Z,9.47
2019-01-15T20:17:17.999Z,11.80
2019-01-15T20:19:35.745Z,13.37
2019-01-15T20:22:08.521Z,10.30
2019-01-15T20:24:41.386Z,7.60
2019-01-15T20:27:18.613Z,8.87
2019-01-15T20:29:42.952Z,8.33
2019-01-15T20:32:10.607Z,17.77
2019-01-15T20:34:33.615Z,13.17
2019-01-15T20:37:00.365Z,13.53
2019-01-15T20:39:27.128Z,8.93
2019-01-15T20:41:41.922Z,12.83
2019-01-15T20:44:05.859Z,6.90
2019-01-15T20:46:28.007Z,12.40
2019-01-15T20:48:51.709Z,14.10
2019-01-15T20:51:15.423Z,31.40
2019-01-15T20:53:51.133Z,12.33
2019-01-15T20:56:18.636Z,7.43
2019-01-15T20:58:40.654Z,7.00
2019-01-15T21:01:03.316Z,8.73
2019-01-15T21:03:36.172Z,4.47
2019-01-15T21:05:58.328Z,9.03
2019-01-15T21:08:32.708Z,13.77
2019-01-15T21:11:08.401Z,12.57
2019-01-15T21:13:24.262Z,10.20
2019-01-15T21:16:03.856Z,13.37
2019-01-15T21:18:32.728Z,11.00
2019-01-15T21:21:02.030Z,11.90
2019-01-15T21:23:27.912Z,12.87
2019-01-15T21:25:52.035Z,13.10
2019-01-15T21:28:21.706Z,11.07
2019-01-15T21:30:50.455Z,13.30
2019-01-15T21:33:08.529Z,10.37
2019-01-15T21:35:47.079Z,11.13
2019-01-15T21:38:30.892Z,12.30
2019-01-15T21:41:13.765Z,9.93
2019-01-15T21:43:31.245Z,11.47
2019-01-15T21:46:01.262Z,16.40
2019-01-15T21:48:24.456Z,15.03
2019-01-15T21:51:06.628Z,12.00
2019-01-15T21:53:48.703Z,11.23
2019-01-15T21:56:27.031Z,5.73
2019-01-15T21:58:53.069Z,11.77
2019-01-15T22:01:20.318Z,10.80
2019-01-15T22:03:45.701Z,14.03
2019-01-15T22:06:10.592Z,10.37
2019-01-15T22:08:39.614Z,9.60
2019-01-15T22:10:56.273Z,9.50
2019-01-15T22:13:19.030Z,8.57
2019-01-15T22:15:42.493Z,7.70
2019-01-15T22:18:18.040Z,12.90
2019-01-15T22:21:01.963Z,8.87
2019-01-15T22:23:23.685Z,7.63
2019-01-15T22:25:48.619Z,14.90
2019-01-15T22:28:25.532Z,9.77
2019-01-15T22:31:00.283Z,12.93
2019-01-15T22:33:42.162Z,8.33
2019-01-15T22:36:04.332Z,8.83
2019-01-15T22:38:41.615Z,10.70
2019-01-15T22:41:12.145Z,7.63
2019-01-15T22:43:31.982Z,9.90
2019-01-15T22:46:12.175Z,10.33
2019-01-15T22:48:34.276Z,8.50
2019-01-15T22:50:58.307Z,7.30
2019-01-15T22:53:28.300Z,6.57
2019-01-15T22:56:00.896Z,9.07
2019-01-15T22:58:30.055Z,5.00
2019-01-15T23:03:05.517Z,9.50
2019-01-15T23:05:43.563Z,10.80
2019-01-15T23:08:09.365Z,7.13
2019-01-15T23:10:36.714Z,7.10
2019-01-15T23:12:51.916Z,12.30
2019-01-15T23:15:17.732Z,7.97
2019-01-15T23:17:32.240Z,10.97
2019-01-15T23:19:57.590Z,8.43
2019-01-15T23:22:22.414Z,13.67
2019-01-15T23:24:44.297Z,9.23
2019-01-15T23:27:08.825Z,10.77
2019-01-15T23:29:36.493Z,10.03
2019-01-15T23:31:59.771Z,10.00
2019-01-15T23:34:24.862Z,6.80
2019-01-15T23:36:48.435Z,12.60
2019-01-15T23:39:09.006Z,11.33
2019-01-15T23:41:52.962Z,6.17
2019-01-15T23:44:28.877Z,9.70
2019-01-15T23:46:53.972Z,6.67
2019-01-15T23:49:22.392Z,11.57
2019-01-15T23:51:53.551Z,8.73
2019-01-15T23:54:25.734Z,8.20
2019-01-15T23:56:50.968Z,9.27
2019-01-15T23:59:31.336Z,9.50
